Kezdőlap
METAR-TAF:

METAR-TAF

Repülőterek :

Malmö, Svédország

Malmői repülőtér

földrajzi szélesség: 55-33N, földrajzi hosszúság: 013-22E, magasság: 106 m

Jelenlegi meteorológiai megfigyelések

A jelentés 34 perccel ezelõtt készült, 23:50 UTC
Északkeleti szél 8 kt
Hőmérséklet -2°C
Páratartalom 74%
Légköri nyomás 1030 hPa
Látótávolság 10 km, vagy több
Szórványos felhőzet 2900 lábon

METAR: ESMS 232350Z 05008KT 9999 SCT029 M02/M06 Q1030

Idő: 01:24 (00:24 UTC)

Előrejelzés

A jelentés 1 órával és 24 perccel ezelõtt készült, 23:00 UTC
Az előrejelzés 24-én 00 óra UTC és 24-én 24 óra UTC között érvényes
Északkeleti szél 10 kt
Látótávolság 10 km, vagy több
Szórványos felhőzet 2000 lábon

TAF: ESMS 232300Z 2400/2424 04010KT 9999 SCT020

Meteorológiai megfigyelések és előrejelzések több, mint 4000 repülőtéren (METAR és TAF jelentéseket).

A térképen piros és sárga pontok jelzik az elérhető meteorológiai állomásokat.

Mozgassa az egeret a pont fölött, hogy megjelenjen az állomás neve.

Azután kattintson az időjárási megfigyelések és előrejelzések megtekintéséhez.

A térkép megváltoztatása: kattintson a fekete keresztel jelölt zöld gombra ráközelítéshez, a vonallal jelölt zöld gombra távolításhoz, vagy a zöld nyilakra a szomszédos térképek eléréséhez.


METAR-TAF: